sensor_id;sensor_type;location;lat;lon;timestamp;P1;durP1;ratioP1;P2;durP2;ratioP2
42704;SDS011;28342;42.594;23.414;2022-07-30T00:00:56;8.25;;;4.32;;
42704;SDS011;28342;42.594;23.414;2022-07-30T00:03:23;8.85;;;4.47;;
42704;SDS011;28342;42.594;23.414;2022-07-30T00:05:50;6.82;;;4.70;;
42704;SDS011;28342;42.594;23.414;2022-07-30T00:08:15;7.28;;;4.78;;
42704;SDS011;28342;42.594;23.414;2022-07-30T00:10:41;6.68;;;4.57;;
42704;SDS011;28342;42.594;23.414;2022-07-30T00:13:07;4.93;;;4.00;;
42704;SDS011;28342;42.594;23.414;2022-07-30T00:15:33;8.32;;;4.82;;
42704;SDS011;28342;42.594;23.414;2022-07-30T00:17:59;10.30;;;4.75;;
42704;SDS011;28342;42.594;23.414;2022-07-30T00:20:25;7.07;;;4.57;;
42704;SDS011;28342;42.594;23.414;2022-07-30T00:22:51;7.38;;;4.47;;
42704;SDS011;28342;42.594;23.414;2022-07-30T00:25:18;4.85;;;4.35;;
42704;SDS011;28342;42.594;23.414;2022-07-30T00:27:44;5.00;;;4.07;;
42704;SDS011;28342;42.594;23.414;2022-07-30T00:30:10;6.10;;;4.55;;
42704;SDS011;28342;42.594;23.414;2022-07-30T00:32:39;4.78;;;4.28;;
42704;SDS011;28342;42.594;23.414;2022-07-30T00:35:06;6.20;;;4.70;;
42704;SDS011;28342;42.594;23.414;2022-07-30T00:37:32;7.05;;;4.10;;
42704;SDS011;28342;42.594;23.414;2022-07-30T00:39:58;5.60;;;4.43;;
42704;SDS011;28342;42.594;23.414;2022-07-30T00:42:25;11.18;;;4.53;;
42704;SDS011;28342;42.594;23.414;2022-07-30T00:45:01;7.63;;;4.40;;
42704;SDS011;28342;42.594;23.414;2022-07-30T00:47:27;6.95;;;4.40;;
42704;SDS011;28342;42.594;23.414;2022-07-30T00:49:54;8.43;;;4.35;;
42704;SDS011;28342;42.594;23.414;2022-07-30T00:52:20;8.82;;;5.00;;
42704;SDS011;28342;42.594;23.414;2022-07-30T00:54:46;9.75;;;4.70;;
42704;SDS011;28342;42.594;23.414;2022-07-30T00:57:12;6.30;;;4.03;;
42704;SDS011;28342;42.594;23.414;2022-07-30T00:59:37;8.85;;;4.97;;
42704;SDS011;28342;42.594;23.414;2022-07-30T01:02:03;4.70;;;4.18;;
42704;SDS011;28342;42.594;23.414;2022-07-30T01:04:29;4.90;;;4.43;;
42704;SDS011;28342;42.594;23.414;2022-07-30T01:06:55;11.25;;;4.72;;
42704;SDS011;28342;42.594;23.414;2022-07-30T01:09:21;9.63;;;5.45;;
42704;SDS011;28342;42.594;23.414;2022-07-30T01:11:47;5.95;;;4.10;;
42704;SDS011;28342;42.594;23.414;2022-07-30T01:14:12;9.73;;;4.82;;
42704;SDS011;28342;42.594;23.414;2022-07-30T01:16:39;5.38;;;4.53;;
42704;SDS011;28342;42.594;23.414;2022-07-30T01:19:09;7.20;;;4.85;;
42704;SDS011;28342;42.594;23.414;2022-07-30T01:24:52;7.28;;;4.80;;
42704;SDS011;28342;42.594;23.414;2022-07-30T01:27:35;5.90;;;4.82;;
42704;SDS011;28342;42.594;23.414;2022-07-30T01:30:09;7.65;;;4.57;;
42704;SDS011;28342;42.594;23.414;2022-07-30T01:32:39;9.10;;;5.00;;
42704;SDS011;28342;42.594;23.414;2022-07-30T01:35:09;5.45;;;4.60;;
42704;SDS011;28342;42.594;23.414;2022-07-30T01:37:36;7.78;;;4.88;;
42704;SDS011;28342;42.594;23.414;2022-07-30T01:40:03;5.93;;;5.32;;
42704;SDS011;28342;42.594;23.414;2022-07-30T01:42:29;5.35;;;4.82;;
42704;SDS011;28342;42.594;23.414;2022-07-30T01:44:57;5.53;;;4.65;;
42704;SDS011;28342;42.594;23.414;2022-07-30T01:47:23;6.07;;;5.47;;
42704;SDS011;28342;42.594;23.414;2022-07-30T01:49:52;5.30;;;4.75;;
42704;SDS011;28342;42.594;23.414;2022-07-30T01:52:22;9.15;;;5.07;;
42704;SDS011;28342;42.594;23.414;2022-07-30T01:54:50;6.22;;;4.72;;
42704;SDS011;28342;42.594;23.414;2022-07-30T01:57:18;6.97;;;5.28;;
42704;SDS011;28342;42.594;23.414;2022-07-30T01:59:48;10.40;;;5.22;;
42704;SDS011;28342;42.594;23.414;2022-07-30T02:02:17;8.13;;;4.60;;
42704;SDS011;28342;42.594;23.414;2022-07-30T02:04:42;5.32;;;4.70;;
42704;SDS011;28342;42.594;23.414;2022-07-30T02:09:53;5.28;;;4.78;;
42704;SDS011;28342;42.594;23.414;2022-07-30T02:12:29;7.18;;;5.38;;
42704;SDS011;28342;42.594;23.414;2022-07-30T02:15:17;5.30;;;4.53;;
42704;SDS011;28342;42.594;23.414;2022-07-30T02:18:27;8.82;;;4.82;;
42704;SDS011;28342;42.594;23.414;2022-07-30T02:21:21;6.03;;;5.13;;
42704;SDS011;28342;42.594;23.414;2022-07-30T02:23:48;8.60;;;5.22;;
42704;SDS011;28342;42.594;23.414;2022-07-30T02:26:17;12.20;;;5.10;;
42704;SDS011;28342;42.594;23.414;2022-07-30T02:28:50;6.72;;;5.22;;
42704;SDS011;28342;42.594;23.414;2022-07-30T02:31:27;9.40;;;5.10;;
42704;SDS011;28342;42.594;23.414;2022-07-30T02:33:57;6.57;;;5.00;;
42704;SDS011;28342;42.594;23.414;2022-07-30T02:36:25;7.88;;;5.43;;
42704;SDS011;28342;42.594;23.414;2022-07-30T02:38:52;7.90;;;5.60;;
42704;SDS011;28342;42.594;23.414;2022-07-30T02:41:24;6.10;;;4.93;;
42704;SDS011;28342;42.594;23.414;2022-07-30T02:43:59;7.82;;;4.93;;
42704;SDS011;28342;42.594;23.414;2022-07-30T02:46:59;6.32;;;4.78;;
42704;SDS011;28342;42.594;23.414;2022-07-30T02:49:50;7.75;;;4.85;;
42704;SDS011;28342;42.594;23.414;2022-07-30T02:52:21;7.82;;;5.35;;
42704;SDS011;28342;42.594;23.414;2022-07-30T02:54:48;8.20;;;4.72;;
42704;SDS011;28342;42.594;23.414;2022-07-30T02:57:18;5.55;;;4.95;;
42704;SDS011;28342;42.594;23.414;2022-07-30T03:00:10;8.38;;;5.20;;
42704;SDS011;28342;42.594;23.414;2022-07-30T03:02:44;6.32;;;5.30;;
42704;SDS011;28342;42.594;23.414;2022-07-30T03:05:13;6.35;;;4.88;;
42704;SDS011;28342;42.594;23.414;2022-07-30T03:07:50;6.82;;;4.78;;
42704;SDS011;28342;42.594;23.414;2022-07-30T03:10:19;5.80;;;4.60;;
42704;SDS011;28342;42.594;23.414;2022-07-30T03:12:45;5.15;;;4.50;;
42704;SDS011;28342;42.594;23.414;2022-07-30T03:15:17;6.03;;;4.78;;
42704;SDS011;28342;42.594;23.414;2022-07-30T03:17:43;7.18;;;4.93;;
42704;SDS011;28342;42.594;23.414;2022-07-30T03:20:14;5.97;;;4.93;;
42704;SDS011;28342;42.594;23.414;2022-07-30T03:22:47;6.63;;;4.85;;
42704;SDS011;28342;42.594;23.414;2022-07-30T03:25:19;5.80;;;4.35;;
42704;SDS011;28342;42.594;23.414;2022-07-30T03:27:53;9.68;;;4.93;;
42704;SDS011;28342;42.594;23.414;2022-07-30T03:30:22;8.45;;;5.10;;
42704;SDS011;28342;42.594;23.414;2022-07-30T03:32:51;7.03;;;5.05;;
42704;SDS011;28342;42.594;23.414;2022-07-30T03:35:18;9.57;;;5.43;;
42704;SDS011;28342;42.594;23.414;2022-07-30T03:37:46;6.93;;;4.55;;
42704;SDS011;28342;42.594;23.414;2022-07-30T03:40:12;8.95;;;5.50;;
42704;SDS011;28342;42.594;23.414;2022-07-30T03:42:38;11.18;;;5.57;;
42704;SDS011;28342;42.594;23.414;2022-07-30T03:45:06;6.20;;;4.93;;
42704;SDS011;28342;42.594;23.414;2022-07-30T03:47:33;7.85;;;5.22;;
42704;SDS011;28342;42.594;23.414;2022-07-30T03:50:03;9.77;;;4.88;;
42704;SDS011;28342;42.594;23.414;2022-07-30T03:52:31;5.72;;;5.13;;
42704;SDS011;28342;42.594;23.414;2022-07-30T03:54:58;8.43;;;5.20;;
42704;SDS011;28342;42.594;23.414;2022-07-30T03:57:29;6.45;;;5.15;;
42704;SDS011;28342;42.594;23.414;2022-07-30T03:59:57;6.45;;;4.47;;
42704;SDS011;28342;42.594;23.414;2022-07-30T04:02:22;5.70;;;4.72;;
42704;SDS011;28342;42.594;23.414;2022-07-30T04:04:51;8.05;;;5.07;;
42704;SDS011;28342;42.594;23.414;2022-07-30T04:07:18;7.25;;;5.05;;
42704;SDS011;28342;42.594;23.414;2022-07-30T04:09:45;9.20;;;5.22;;
42704;SDS011;28342;42.594;23.414;2022-07-30T04:12:10;6.68;;;4.70;;
42704;SDS011;28342;42.594;23.414;2022-07-30T04:14:44;8.52;;;5.43;;
42704;SDS011;28342;42.594;23.414;2022-07-30T04:17:16;8.45;;;5.10;;
42704;SDS011;28342;42.594;23.414;2022-07-30T04:19:50;7.55;;;5.30;;
42704;SDS011;28342;42.594;23.414;2022-07-30T04:22:19;8.85;;;5.40;;
42704;SDS011;28342;42.594;23.414;2022-07-30T04:24:52;7.45;;;5.45;;
42704;SDS011;28342;42.594;23.414;2022-07-30T04:27:20;6.75;;;5.18;;
42704;SDS011;28342;42.594;23.414;2022-07-30T04:29:49;9.88;;;5.80;;
42704;SDS011;28342;42.594;23.414;2022-07-30T04:32:17;11.88;;;5.30;;
42704;SDS011;28342;42.594;23.414;2022-07-30T04:34:54;7.60;;;5.47;;
42704;SDS011;28342;42.594;23.414;2022-07-30T04:37:23;9.73;;;5.15;;
42704;SDS011;28342;42.594;23.414;2022-07-30T04:39:50;9.35;;;4.93;;
42704;SDS011;28342;42.594;23.414;2022-07-30T04:42:19;8.95;;;5.28;;
42704;SDS011;28342;42.594;23.414;2022-07-30T04:44:47;10.05;;;4.97;;
42704;SDS011;28342;42.594;23.414;2022-07-30T04:47:13;5.20;;;4.70;;
42704;SDS011;28342;42.594;23.414;2022-07-30T04:49:39;5.07;;;4.53;;
42704;SDS011;28342;42.594;23.414;2022-07-30T04:52:10;10.02;;;5.05;;
42704;SDS011;28342;42.594;23.414;2022-07-30T04:54:54;14.13;;;5.45;;
42704;SDS011;28342;42.594;23.414;2022-07-30T04:57:23;6.13;;;4.43;;
42704;SDS011;28342;42.594;23.414;2022-07-30T05:00:17;6.32;;;4.88;;
42704;SDS011;28342;42.594;23.414;2022-07-30T05:02:56;9.63;;;4.88;;
42704;SDS011;28342;42.594;23.414;2022-07-30T05:05:29;5.97;;;4.78;;
42704;SDS011;28342;42.594;23.414;2022-07-30T05:07:57;7.30;;;4.57;;
42704;SDS011;28342;42.594;23.414;2022-07-30T05:10:26;12.35;;;5.40;;
42704;SDS011;28342;42.594;23.414;2022-07-30T05:12:55;7.32;;;5.18;;
42704;SDS011;28342;42.594;23.414;2022-07-30T05:15:28;6.60;;;4.57;;
42704;SDS011;28342;42.594;23.414;2022-07-30T05:17:59;5.43;;;4.72;;
42704;SDS011;28342;42.594;23.414;2022-07-30T05:20:24;6.25;;;4.15;;
42704;SDS011;28342;42.594;23.414;2022-07-30T05:22:53;5.88;;;5.10;;
42704;SDS011;28342;42.594;23.414;2022-07-30T05:25:20;5.25;;;4.75;;
42704;SDS011;28342;42.594;23.414;2022-07-30T05:27:48;11.20;;;5.25;;
42704;SDS011;28342;42.594;23.414;2022-07-30T05:30:15;6.97;;;4.57;;
42704;SDS011;28342;42.594;23.414;2022-07-30T05:32:40;5.00;;;4.53;;
42704;SDS011;28342;42.594;23.414;2022-07-30T05:35:11;5.57;;;5.03;;
42704;SDS011;28342;42.594;23.414;2022-07-30T05:37:39;7.35;;;4.97;;
42704;SDS011;28342;42.594;23.414;2022-07-30T05:40:05;5.32;;;4.80;;
42704;SDS011;28342;42.594;23.414;2022-07-30T05:42:33;7.00;;;4.90;;
42704;SDS011;28342;42.594;23.414;2022-07-30T05:44:59;6.38;;;5.20;;
42704;SDS011;28342;42.594;23.414;2022-07-30T05:47:26;11.63;;;5.10;;
42704;SDS011;28342;42.594;23.414;2022-07-30T05:49:57;6.50;;;5.28;;
42704;SDS011;28342;42.594;23.414;2022-07-30T05:52:33;8.10;;;4.80;;
42704;SDS011;28342;42.594;23.414;2022-07-30T05:55:03;7.72;;;5.40;;
42704;SDS011;28342;42.594;23.414;2022-07-30T05:57:34;5.22;;;4.63;;
42704;SDS011;28342;42.594;23.414;2022-07-30T06:00:00;8.18;;;5.30;;
42704;SDS011;28342;42.594;23.414;2022-07-30T06:02:37;9.43;;;5.07;;
42704;SDS011;28342;42.594;23.414;2022-07-30T06:05:08;7.57;;;5.00;;
42704;SDS011;28342;42.594;23.414;2022-07-30T06:08:15;8.50;;;4.65;;
42704;SDS011;28342;42.594;23.414;2022-07-30T06:11:05;6.88;;;4.82;;
42704;SDS011;28342;42.594;23.414;2022-07-30T06:13:54;6.40;;;5.53;;
42704;SDS011;28342;42.594;23.414;2022-07-30T06:16:24;8.27;;;4.60;;
42704;SDS011;28342;42.594;23.414;2022-07-30T06:18:51;6.75;;;5.28;;
42704;SDS011;28342;42.594;23.414;2022-07-30T06:21:18;6.72;;;5.15;;
42704;SDS011;28342;42.594;23.414;2022-07-30T06:23:51;6.65;;;4.80;;
42704;SDS011;28342;42.594;23.414;2022-07-30T06:26:19;7.10;;;5.18;;
42704;SDS011;28342;42.594;23.414;2022-07-30T06:28:45;6.15;;;4.18;;
42704;SDS011;28342;42.594;23.414;2022-07-30T06:31:11;4.70;;;4.30;;
42704;SDS011;28342;42.594;23.414;2022-07-30T06:33:39;9.23;;;4.38;;
42704;SDS011;28342;42.594;23.414;2022-07-30T06:36:07;8.13;;;4.70;;
42704;SDS011;28342;42.594;23.414;2022-07-30T06:38:33;8.10;;;4.70;;
42704;SDS011;28342;42.594;23.414;2022-07-30T06:40:58;11.27;;;7.82;;
42704;SDS011;28342;42.594;23.414;2022-07-30T06:43:26;6.93;;;4.88;;
42704;SDS011;28342;42.594;23.414;2022-07-30T06:45:52;8.18;;;5.13;;
42704;SDS011;28342;42.594;23.414;2022-07-30T06:48:18;5.28;;;4.75;;
42704;SDS011;28342;42.594;23.414;2022-07-30T06:50:46;7.57;;;5.05;;
42704;SDS011;28342;42.594;23.414;2022-07-30T06:53:12;7.60;;;4.80;;
42704;SDS011;28342;42.594;23.414;2022-07-30T06:55:37;8.13;;;5.00;;
42704;SDS011;28342;42.594;23.414;2022-07-30T06:58:05;12.35;;;5.47;;
42704;SDS011;28342;42.594;23.414;2022-07-30T07:00:30;7.18;;;4.50;;
42704;SDS011;28342;42.594;23.414;2022-07-30T07:02:56;5.55;;;4.75;;
42704;SDS011;28342;42.594;23.414;2022-07-30T07:05:21;8.25;;;4.78;;
42704;SDS011;28342;42.594;23.414;2022-07-30T07:07:49;9.73;;;4.90;;
42704;SDS011;28342;42.594;23.414;2022-07-30T07:10:14;6.65;;;4.63;;
42704;SDS011;28342;42.594;23.414;2022-07-30T07:12:44;12.80;;;4.93;;
42704;SDS011;28342;42.594;23.414;2022-07-30T07:15:11;7.70;;;4.35;;
42704;SDS011;28342;42.594;23.414;2022-07-30T07:17:37;6.57;;;4.35;;
42704;SDS011;28342;42.594;23.414;2022-07-30T07:20:05;7.82;;;4.28;;
42704;SDS011;28342;42.594;23.414;2022-07-30T07:22:32;6.65;;;3.95;;
42704;SDS011;28342;42.594;23.414;2022-07-30T07:24:57;4.50;;;4.10;;
42704;SDS011;28342;42.594;23.414;2022-07-30T07:27:25;8.35;;;4.15;;
42704;SDS011;28342;42.594;23.414;2022-07-30T07:29:50;10.90;;;4.47;;
42704;SDS011;28342;42.594;23.414;2022-07-30T07:32:20;9.70;;;4.65;;
42704;SDS011;28342;42.594;23.414;2022-07-30T07:34:49;6.07;;;3.95;;
42704;SDS011;28342;42.594;23.414;2022-07-30T07:37:16;4.50;;;3.70;;
42704;SDS011;28342;42.594;23.414;2022-07-30T07:39:43;8.73;;;4.32;;
42704;SDS011;28342;42.594;23.414;2022-07-30T07:42:09;9.90;;;4.07;;
42704;SDS011;28342;42.594;23.414;2022-07-30T07:44:35;8.82;;;4.03;;
42704;SDS011;28342;42.594;23.414;2022-07-30T07:47:00;4.10;;;3.70;;
42704;SDS011;28342;42.594;23.414;2022-07-30T07:49:26;5.63;;;4.00;;
42704;SDS011;28342;42.594;23.414;2022-07-30T07:51:51;4.93;;;3.90;;
42704;SDS011;28342;42.594;23.414;2022-07-30T07:54:17;7.05;;;4.70;;
42704;SDS011;28342;42.594;23.414;2022-07-30T07:56:42;8.50;;;4.22;;
42704;SDS011;28342;42.594;23.414;2022-07-30T07:59:32;4.30;;;3.90;;
42704;SDS011;28342;42.594;23.414;2022-07-30T08:02:00;5.63;;;3.95;;
42704;SDS011;28342;42.594;23.414;2022-07-30T08:04:27;7.70;;;4.72;;
42704;SDS011;28342;42.594;23.414;2022-07-30T08:06:52;10.82;;;4.38;;
42704;SDS011;28342;42.594;23.414;2022-07-30T08:09:18;4.85;;;4.38;;
42704;SDS011;28342;42.594;23.414;2022-07-30T08:11:43;6.43;;;4.03;;
42704;SDS011;28342;42.594;23.414;2022-07-30T08:14:11;5.10;;;4.22;;
42704;SDS011;28342;42.594;23.414;2022-07-30T08:16:38;4.95;;;4.45;;
42704;SDS011;28342;42.594;23.414;2022-07-30T08:19:40;9.18;;;5.15;;
42704;SDS011;28342;42.594;23.414;2022-07-30T08:22:07;7.68;;;4.75;;
42704;SDS011;28342;42.594;23.414;2022-07-30T08:24:36;7.22;;;4.18;;
42704;SDS011;28342;42.594;23.414;2022-07-30T08:27:02;5.15;;;4.65;;
42704;SDS011;28342;42.594;23.414;2022-07-30T08:29:28;5.13;;;4.63;;
42704;SDS011;28342;42.594;23.414;2022-07-30T08:32:11;5.53;;;4.53;;
42704;SDS011;28342;42.594;23.414;2022-07-30T08:34:36;6.38;;;4.88;;
42704;SDS011;28342;42.594;23.414;2022-07-30T08:37:06;6.05;;;4.60;;
42704;SDS011;28342;42.594;23.414;2022-07-30T08:39:34;5.82;;;4.47;;
42704;SDS011;28342;42.594;23.414;2022-07-30T08:42:05;6.10;;;4.13;;
42704;SDS011;28342;42.594;23.414;2022-07-30T08:44:38;7.78;;;4.28;;
42704;SDS011;28342;42.594;23.414;2022-07-30T08:47:32;5.47;;;5.00;;
42704;SDS011;28342;42.594;23.414;2022-07-30T08:50:08;4.57;;;4.15;;
42704;SDS011;28342;42.594;23.414;2022-07-30T08:52:51;4.72;;;4.18;;
42704;SDS011;28342;42.594;23.414;2022-07-30T08:55:39;6.18;;;4.50;;
42704;SDS011;28342;42.594;23.414;2022-07-30T08:59:23;6.60;;;4.47;;
42704;SDS011;28342;42.594;23.414;2022-07-30T09:01:49;6.68;;;4.25;;
42704;SDS011;28342;42.594;23.414;2022-07-30T09:04:16;4.80;;;4.40;;
42704;SDS011;28342;42.594;23.414;2022-07-30T09:06:44;4.88;;;4.00;;
42704;SDS011;28342;42.594;23.414;2022-07-30T09:09:14;6.20;;;4.60;;
42704;SDS011;28342;42.594;23.414;2022-07-30T09:11:43;4.88;;;4.35;;
42704;SDS011;28342;42.594;23.414;2022-07-30T09:15:05;5.97;;;4.00;;
42704;SDS011;28342;42.594;23.414;2022-07-30T09:27:18;4.70;;;4.25;;
42704;SDS011;28342;42.594;23.414;2022-07-30T09:30:06;4.80;;;4.30;;
42704;SDS011;28342;42.594;23.414;2022-07-30T09:33:11;9.05;;;4.30;;
42704;SDS011;28342;42.594;23.414;2022-07-30T09:35:37;4.55;;;3.17;;
42704;SDS011;28342;42.594;23.414;2022-07-30T09:38:05;5.95;;;4.38;;
42704;SDS011;28342;42.594;23.414;2022-07-30T09:40:31;5.00;;;4.22;;
42704;SDS011;28342;42.594;23.414;2022-07-30T09:43:03;6.28;;;4.25;;
42704;SDS011;28342;42.594;23.414;2022-07-30T09:45:32;4.72;;;4.22;;
42704;SDS011;28342;42.594;23.414;2022-07-30T09:48:00;6.78;;;4.40;;
42704;SDS011;28342;42.594;23.414;2022-07-30T09:50:28;4.82;;;3.90;;
42704;SDS011;28342;42.594;23.414;2022-07-30T09:53:10;4.35;;;3.95;;
42704;SDS011;28342;42.594;23.414;2022-07-30T09:55:42;6.53;;;4.20;;
42704;SDS011;28342;42.594;23.414;2022-07-30T09:58:08;5.43;;;4.18;;
42704;SDS011;28342;42.594;23.414;2022-07-30T10:00:36;7.57;;;4.60;;
42704;SDS011;28342;42.594;23.414;2022-07-30T10:05:51;5.10;;;4.10;;
42704;SDS011;28342;42.594;23.414;2022-07-30T10:08:38;4.45;;;4.05;;
42704;SDS011;28342;42.594;23.414;2022-07-30T10:11:18;4.18;;;3.83;;
42704;SDS011;28342;42.594;23.414;2022-07-30T10:14:04;6.30;;;4.28;;
42704;SDS011;28342;42.594;23.414;2022-07-30T10:17:18;5.97;;;4.00;;
42704;SDS011;28342;42.594;23.414;2022-07-30T10:20:09;4.43;;;4.00;;
42704;SDS011;28342;42.594;23.414;2022-07-30T10:27:10;5.28;;;4.63;;
42704;SDS011;28342;42.594;23.414;2022-07-30T10:30:22;5.50;;;4.85;;
42704;SDS011;28342;42.594;23.414;2022-07-30T10:32:55;5.63;;;4.60;;
42704;SDS011;28342;42.594;23.414;2022-07-30T10:35:34;9.40;;;4.75;;
42704;SDS011;28342;42.594;23.414;2022-07-30T10:38:33;5.47;;;4.82;;
42704;SDS011;28342;42.594;23.414;2022-07-30T10:41:04;5.60;;;5.10;;
42704;SDS011;28342;42.594;23.414;2022-07-30T10:46:42;6.55;;;5.00;;
42704;SDS011;28342;42.594;23.414;2022-07-30T10:49:14;5.50;;;5.00;;
42704;SDS011;28342;42.594;23.414;2022-07-30T10:57:19;16.08;;;5.32;;
42704;SDS011;28342;42.594;23.414;2022-07-30T11:02:17;6.75;;;6.07;;
42704;SDS011;28342;42.594;23.414;2022-07-30T11:04:44;5.93;;;5.43;;
42704;SDS011;28342;42.594;23.414;2022-07-30T11:09:54;7.07;;;6.27;;
42704;SDS011;28342;42.594;23.414;2022-07-30T11:15:16;11.65;;;6.90;;
42704;SDS011;28342;42.594;23.414;2022-07-30T11:20:27;6.75;;;6.15;;
42704;SDS011;28342;42.594;23.414;2022-07-30T11:26:01;6.03;;;5.43;;
42704;SDS011;28342;42.594;23.414;2022-07-30T11:29:33;5.25;;;4.85;;
42704;SDS011;28342;42.594;23.414;2022-07-30T11:38:10;8.32;;;5.68;;
42704;SDS011;28342;42.594;23.414;2022-07-30T11:53:59;6.70;;;5.75;;
42704;SDS011;28342;42.594;23.414;2022-07-30T11:56:50;6.35;;;5.65;;
42704;SDS011;28342;42.594;23.414;2022-07-30T11:59:51;7.93;;;6.13;;
42704;SDS011;28342;42.594;23.414;2022-07-30T12:02:18;8.32;;;6.07;;
42704;SDS011;28342;42.594;23.414;2022-07-30T12:05:11;8.30;;;6.47;;
42704;SDS011;28342;42.594;23.414;2022-07-30T12:07:58;9.70;;;6.47;;
42704;SDS011;28342;42.594;23.414;2022-07-30T12:10:53;6.65;;;6.00;;
42704;SDS011;28342;42.594;23.414;2022-07-30T12:13:53;6.22;;;5.38;;
42704;SDS011;28342;42.594;23.414;2022-07-30T12:16:56;6.18;;;5.57;;
42704;SDS011;28342;42.594;23.414;2022-07-30T12:19:26;7.00;;;5.88;;
42704;SDS011;28342;42.594;23.414;2022-07-30T12:21:57;7.93;;;6.00;;
42704;SDS011;28342;42.594;23.414;2022-07-30T12:24:43;6.15;;;5.55;;
42704;SDS011;28342;42.594;23.414;2022-07-30T12:27:10;7.55;;;6.25;;
42704;SDS011;28342;42.594;23.414;2022-07-30T12:29:42;6.47;;;5.88;;
42704;SDS011;28342;42.594;23.414;2022-07-30T12:32:18;7.65;;;5.93;;
42704;SDS011;28342;42.594;23.414;2022-07-30T12:35:16;7.43;;;6.05;;
42704;SDS011;28342;42.594;23.414;2022-07-30T12:38:03;6.32;;;5.65;;
42704;SDS011;28342;42.594;23.414;2022-07-30T12:44:41;11.02;;;5.57;;
42704;SDS011;28342;42.594;23.414;2022-07-30T12:48:16;6.03;;;5.30;;
42704;SDS011;28342;42.594;23.414;2022-07-30T12:50:46;5.63;;;5.07;;
42704;SDS011;28342;42.594;23.414;2022-07-30T12:53:17;5.65;;;5.15;;
42704;SDS011;28342;42.594;23.414;2022-07-30T12:56:10;5.93;;;5.32;;
42704;SDS011;28342;42.594;23.414;2022-07-30T12:59:19;5.45;;;4.93;;
42704;SDS011;28342;42.594;23.414;2022-07-30T13:02:00;5.50;;;4.90;;
42704;SDS011;28342;42.594;23.414;2022-07-30T13:14:34;6.38;;;4.95;;
42704;SDS011;28342;42.594;23.414;2022-07-30T13:20:04;5.45;;;4.88;;
42704;SDS011;28342;42.594;23.414;2022-07-30T13:22:50;6.25;;;4.95;;
42704;SDS011;28342;42.594;23.414;2022-07-30T13:25:20;6.45;;;4.30;;
42704;SDS011;28342;42.594;23.414;2022-07-30T13:28:10;8.38;;;4.50;;
42704;SDS011;28342;42.594;23.414;2022-07-30T13:30:36;6.43;;;4.57;;
42704;SDS011;28342;42.594;23.414;2022-07-30T13:33:02;8.32;;;4.47;;
42704;SDS011;28342;42.594;23.414;2022-07-30T13:35:51;5.72;;;5.10;;
42704;SDS011;28342;42.594;23.414;2022-07-30T13:38:20;5.35;;;4.80;;
42704;SDS011;28342;42.594;23.414;2022-07-30T13:40:47;5.22;;;4.72;;
42704;SDS011;28342;42.594;23.414;2022-07-30T13:43:14;5.68;;;5.07;;
42704;SDS011;28342;42.594;23.414;2022-07-30T13:45:48;5.00;;;4.50;;
42704;SDS011;28342;42.594;23.414;2022-07-30T13:48:40;5.43;;;4.40;;
42704;SDS011;28342;42.594;23.414;2022-07-30T13:58:06;6.30;;;5.25;;
42704;SDS011;28342;42.594;23.414;2022-07-30T14:04:05;7.43;;;5.45;;
42704;SDS011;28342;42.594;23.414;2022-07-30T16:13:38;8.50;;;5.50;;
42704;SDS011;28342;42.594;23.414;2022-07-30T16:16:58;10.40;;;6.70;;
42704;SDS011;28342;42.594;23.414;2022-07-30T16:19:59;7.63;;;6.20;;
42704;SDS011;28342;42.594;23.414;2022-07-30T16:28:38;9.93;;;6.38;;
42704;SDS011;28342;42.594;23.414;2022-07-30T16:31:28;15.32;;;8.68;;
42704;SDS011;28342;42.594;23.414;2022-07-30T16:34:11;16.40;;;6.68;;
42704;SDS011;28342;42.594;23.414;2022-07-30T16:36:40;11.30;;;6.70;;
42704;SDS011;28342;42.594;23.414;2022-07-30T16:39:41;9.60;;;6.97;;
42704;SDS011;28342;42.594;23.414;2022-07-30T16:42:07;9.05;;;6.35;;
42704;SDS011;28342;42.594;23.414;2022-07-30T16:44:32;7.22;;;6.10;;
42704;SDS011;28342;42.594;23.414;2022-07-30T16:46:59;7.85;;;6.28;;
42704;SDS011;28342;42.594;23.414;2022-07-30T16:49:54;9.05;;;6.40;;
42704;SDS011;28342;42.594;23.414;2022-07-30T16:52:21;7.45;;;6.65;;
42704;SDS011;28342;42.594;23.414;2022-07-30T17:15:35;11.60;;;7.50;;
42704;SDS011;28342;42.594;23.414;2022-07-30T17:18:55;11.38;;;6.00;;
42704;SDS011;28342;42.594;23.414;2022-07-30T17:25:42;10.73;;;8.95;;
42704;SDS011;28342;42.594;23.414;2022-07-30T17:28:13;7.68;;;6.97;;
42704;SDS011;28342;42.594;23.414;2022-07-30T17:30:45;7.82;;;6.63;;
42704;SDS011;28342;42.594;23.414;2022-07-30T17:37:26;10.02;;;6.63;;
42704;SDS011;28342;42.594;23.414;2022-07-30T17:39:52;11.50;;;7.03;;
42704;SDS011;28342;42.594;23.414;2022-07-30T17:42:19;10.10;;;7.65;;
42704;SDS011;28342;42.594;23.414;2022-07-30T17:44:48;9.43;;;7.85;;
42704;SDS011;28342;42.594;23.414;2022-07-30T17:47:13;12.90;;;8.95;;
42704;SDS011;28342;42.594;23.414;2022-07-30T17:49:40;9.85;;;7.85;;
42704;SDS011;28342;42.594;23.414;2022-07-30T17:52:06;13.80;;;7.38;;
42704;SDS011;28342;42.594;23.414;2022-07-30T17:54:52;14.20;;;7.47;;
42704;SDS011;28342;42.594;23.414;2022-07-30T17:57:43;10.18;;;6.90;;
42704;SDS011;28342;42.594;23.414;2022-07-30T18:00:10;12.27;;;8.00;;
42704;SDS011;28342;42.594;23.414;2022-07-30T18:02:50;11.50;;;7.38;;
42704;SDS011;28342;42.594;23.414;2022-07-30T18:05:23;12.30;;;7.78;;
42704;SDS011;28342;42.594;23.414;2022-07-30T18:07:48;10.10;;;7.70;;
42704;SDS011;28342;42.594;23.414;2022-07-30T18:13:07;9.45;;;7.72;;
42704;SDS011;28342;42.594;23.414;2022-07-30T18:15:41;12.30;;;6.80;;
42704;SDS011;28342;42.594;23.414;2022-07-30T18:21:05;9.73;;;7.07;;
42704;SDS011;28342;42.594;23.414;2022-07-30T18:23:57;8.60;;;7.15;;
42704;SDS011;28342;42.594;23.414;2022-07-30T18:26:23;8.43;;;7.50;;
42704;SDS011;28342;42.594;23.414;2022-07-30T18:28:51;8.70;;;7.80;;
42704;SDS011;28342;42.594;23.414;2022-07-30T18:31:18;8.48;;;6.97;;
42704;SDS011;28342;42.594;23.414;2022-07-30T18:33:53;13.23;;;7.28;;
42704;SDS011;28342;42.594;23.414;2022-07-30T18:36:20;13.95;;;8.90;;
42704;SDS011;28342;42.594;23.414;2022-07-30T18:38:46;20.00;;;9.38;;
42704;SDS011;28342;42.594;23.414;2022-07-30T18:41:14;15.95;;;10.70;;
42704;SDS011;28342;42.594;23.414;2022-07-30T18:43:45;16.83;;;11.43;;
42704;SDS011;28342;42.594;23.414;2022-07-30T18:46:11;16.88;;;11.20;;
42704;SDS011;28342;42.594;23.414;2022-07-30T18:48:37;13.07;;;10.25;;
42704;SDS011;28342;42.594;23.414;2022-07-30T18:51:03;15.27;;;10.27;;
42704;SDS011;28342;42.594;23.414;2022-07-30T18:53:35;11.15;;;8.43;;
42704;SDS011;28342;42.594;23.414;2022-07-30T18:56:02;14.57;;;9.95;;
42704;SDS011;28342;42.594;23.414;2022-07-30T18:58:27;12.73;;;9.90;;
42704;SDS011;28342;42.594;23.414;2022-07-30T19:00:53;14.75;;;10.50;;
42704;SDS011;28342;42.594;23.414;2022-07-30T19:03:18;14.15;;;10.23;;
42704;SDS011;28342;42.594;23.414;2022-07-30T19:05:49;17.17;;;11.50;;
42704;SDS011;28342;42.594;23.414;2022-07-30T19:08:15;21.73;;;13.35;;
42704;SDS011;28342;42.594;23.414;2022-07-30T19:10:40;16.45;;;12.48;;
42704;SDS011;28342;42.594;23.414;2022-07-30T19:13:07;20.85;;;12.73;;
42704;SDS011;28342;42.594;23.414;2022-07-30T19:15:32;19.55;;;13.70;;
42704;SDS011;28342;42.594;23.414;2022-07-30T19:17:57;24.73;;;13.65;;
42704;SDS011;28342;42.594;23.414;2022-07-30T19:20:23;16.15;;;12.70;;
42704;SDS011;28342;42.594;23.414;2022-07-30T19:22:50;16.92;;;12.68;;
42704;SDS011;28342;42.594;23.414;2022-07-30T19:25:23;12.63;;;11.27;;